Aérodrome :
LOGIN :

S'inscrire | Disclaimer

   EN    FR    IT 

 










Légende :    VFR   VFR Marginal   IFR   IFR Intensif   IFR Très Intensif
Visi : 
Plafond : 
>= 8 km
>= 3000ft
5 à 8 km
1000 à 3000 ft
1500m à 5 km
500 à 1000 ft
800 à 1500m
200 à 500 ft
< 800m
< 200 ft
Symboles :   Orages  Brouillard  Fortes neiges  Fortes précipitations  Vent > 20 kt
SIGMETs :   Divers  Orages  Givrage  Turbulence  Onde Orograph.  Cendres Volcan.







- Altitude de l'aérodrome : 291 ft
- Code IATA : ORY
- Voir les cartes d'approche


LFPO - Paris-Orly

DERNIER METAR :
  • 192130Z 03012KT 9999 BKN026 BKN053 04/00 Q1007 NOSIG

METARs EXPIRÉS :
  • 192100Z 04012KT 9999 SCT036 BKN043 04/01 Q1007 NOSIG
  • 192030Z 03009KT 9999 BKN036 BKN046 03/01 Q1008 NOSIG
  • 192000Z 04009KT 9999 BKN036 BKN053 BKN100 03/01 Q1008 NOSIG
  • 191930Z 05011KT 9999 FEW022 SCT036 BKN086 03/01 Q1008 NOSIG
  • 191900Z 06019KT 9999 -RA SCT016 BKN023 04/01 Q1009 NOSIG

TAF TAF LFPO
Valide du 19 à 18h jusqu'au 21 à 00h UTC


191700Z 1918/2024 04010G20KT 9999 BKN020
BECMG 1921/1923 -SNRA BKN012
BECMG 1923/2001 -SN BKN006
TEMPO 2001/2012 1500 SN OVC003
TEMPO 2012/2018 2500 -SN BKN003
BECMG 2018/2020 VRB03KT NSW
TEMPO 2018/2024 1200 BR OVC002
PROB30
TEMPO 2021/2024 0600 FG VV///
ATIS : +33 1 49 75 65 80
Pas de NOTAMs connus pour ce terrain.



MET'MAP, la Météo Aéronautique d'un coup d'oeil ! - Copyright ORBIFLY Décembre 2007 - Disclaimer

ORBIFLY MET'MAP TEAM :

Programmation & Développement : Alexandra Zaïnal
Conception & Développement : Baudouin d'Aumeries
Co-Programmation & Développement : Marc-Olivier Méhu
Soutien technique & logistique : Manuel Goepfert

Contact : metmap@orbifly.com




SOURCES & CREDITS :

   NOAA